Time;durP1;ratioP1;P1;durP2;ratioP2;P2;SDS_P1;SDS_P2;PMS_P1;PMS_P2;Temp;Humidity;BMP_temperature;BMP_pressure;BME280_temperature;BME280_humidity;BME280_pressure;Samples;Min_cycle;Max_cycle;Signal;HPM_P1;HPM_P2
2021/12/19 00:09:21;;;;;;;26.93;16.73;;;8.50;99.90;;;;;;4957921;28;20455;-89
2021/12/19 00:11:47;;;;;;;26.40;17.20;;;8.50;99.90;;;;;;4942660;28;20455;-89
2021/12/19 00:14:22;;;;;;;26.10;17.20;;;8.50;99.90;;;;;;4959029;28;20456;-87
2021/12/19 00:16:54;;;;;;;26.77;17.07;;;8.50;99.90;;;;;;4962410;28;20481;-88
2021/12/19 00:19:30;;;;;;;25.90;16.60;;;8.50;99.90;;;;;;4943590;28;20477;-87
2021/12/19 00:22:01;;;;;;;30.87;17.20;;;8.50;99.90;;;;;;4981828;28;20452;-88
2021/12/19 00:24:31;;;;;;;27.67;17.13;;;8.50;99.90;;;;;;4977470;28;20466;-86
2021/12/19 00:26:58;;;;;;;27.93;16.23;;;8.50;99.90;;;;;;4981377;28;20485;-88
2021/12/19 00:29:25;;;;;;;28.40;16.10;;;8.60;99.90;;;;;;4946101;28;20542;-86
2021/12/19 00:31:51;;;;;;;28.27;17.77;;;8.50;99.90;;;;;;4902998;28;20534;-87
2021/12/19 00:34:18;;;;;;;25.00;18.00;;;8.50;99.90;;;;;;4909835;28;20606;-89
2021/12/19 00:36:45;;;;;;;29.73;18.23;;;8.50;99.90;;;;;;4937835;28;20508;-85
2021/12/19 00:39:13;;;;;;;29.97;16.23;;;8.50;99.90;;;;;;4897332;28;20471;-87
2021/12/19 00:41:40;;;;;;;28.03;16.67;;;8.50;99.90;;;;;;4911455;28;21820;-85
2021/12/19 00:44:11;;;;;;;24.00;16.03;;;8.40;99.90;;;;;;4926841;28;20468;-85
2021/12/19 00:46:52;;;;;;;28.27;15.70;;;8.50;99.90;;;;;;4926268;28;20475;-86
2021/12/19 00:49:25;;;;;;;29.77;16.87;;;8.40;99.90;;;;;;4952466;28;20534;-85
2021/12/19 00:51:51;;;;;;;23.13;16.07;;;8.40;99.90;;;;;;4967755;28;20466;-85
2021/12/19 00:54:18;;;;;;;26.10;17.30;;;8.40;99.90;;;;;;4971517;28;20479;-85
2021/12/19 00:56:48;;;;;;;28.73;17.40;;;8.50;99.90;;;;;;4955642;28;20479;-87
2021/12/19 00:59:19;;;;;;;27.97;16.40;;;8.50;99.90;;;;;;4922810;28;21032;-85
2021/12/19 01:01:46;;;;;;;27.90;17.03;;;8.50;99.90;;;;;;4898195;28;20451;-87
2021/12/19 01:04:17;;;;;;;27.83;17.23;;;8.50;99.90;;;;;;4894049;28;20464;-87
2021/12/19 01:07:00;;;;;;;26.23;16.90;;;8.60;99.90;;;;;;4850795;28;20517;-87
2021/12/19 01:09:27;;;;;;;31.83;18.93;;;8.50;99.90;;;;;;4867889;28;21152;-85
2021/12/19 01:11:54;;;;;;;29.20;18.03;;;8.50;99.90;;;;;;4907272;28;21530;-83
2021/12/19 01:14:21;;;;;;;31.87;16.77;;;8.50;99.90;;;;;;4891819;28;20485;-83
2021/12/19 01:16:50;;;;;;;31.60;17.60;;;8.50;99.90;;;;;;4897740;28;20755;-83
2021/12/19 01:19:17;;;;;;;28.70;18.07;;;8.50;99.90;;;;;;4966806;28;20462;-84
2021/12/19 01:21:45;;;;;;;30.23;17.40;;;8.50;99.90;;;;;;4968630;28;20755;-83
2021/12/19 01:24:55;;;;;;;31.30;18.10;;;8.50;99.90;;;;;;4961141;28;20483;-85
2021/12/19 01:27:25;;;;;;;34.50;16.60;;;8.50;99.90;;;;;;4933301;28;20498;-86
2021/12/19 01:30:14;;;;;;;28.97;15.77;;;8.50;99.90;;;;;;4887277;28;21233;-85
2021/12/19 01:32:45;;;;;;;31.80;18.47;;;8.50;99.90;;;;;;4876213;28;22479;-87
2021/12/19 01:35:14;;;;;;;29.57;16.70;;;8.50;99.90;;;;;;4874638;28;20476;-87
2021/12/19 01:37:41;;;;;;;32.07;18.20;;;8.50;99.90;;;;;;4900157;28;20480;-86
2021/12/19 01:40:18;;;;;;;31.10;17.97;;;8.50;99.90;;;;;;4897263;28;20523;-83
2021/12/19 01:42:52;;;;;;;31.70;18.30;;;8.50;99.90;;;;;;4874266;28;20459;-84
2021/12/19 01:45:31;;;;;;;29.00;17.60;;;8.50;99.90;;;;;;4904187;28;20510;-84
2021/12/19 01:48:05;;;;;;;30.87;17.20;;;8.50;99.90;;;;;;4933778;28;20514;-83
2021/12/19 01:50:41;;;;;;;41.57;18.07;;;8.50;99.90;;;;;;4871820;28;20535;-82
2021/12/19 01:53:15;;;;;;;37.50;19.63;;;8.50;99.90;;;;;;4913302;28;20500;-86
2021/12/19 01:55:45;;;;;;;31.53;17.13;;;8.50;99.90;;;;;;4899620;28;21130;-84
2021/12/19 01:58:20;;;;;;;29.03;16.50;;;8.40;99.90;;;;;;4930897;28;22586;-85
2021/12/19 02:00:54;;;;;;;30.80;18.27;;;8.40;99.90;;;;;;4936545;28;20488;-82
2021/12/19 02:03:22;;;;;;;28.00;17.27;;;8.50;99.90;;;;;;4907002;28;21422;-83
2021/12/19 02:05:49;;;;;;;34.67;18.13;;;8.50;99.90;;;;;;4880236;28;20477;-83
2021/12/19 02:08:17;;;;;;;30.27;15.80;;;8.40;99.90;;;;;;4878009;28;20582;-83
2021/12/19 02:10:46;;;;;;;29.87;16.20;;;8.50;99.90;;;;;;4905282;28;21333;-84
2021/12/19 02:13:19;;;;;;;30.73;16.07;;;8.50;99.90;;;;;;4923103;28;20489;-83
2021/12/19 02:15:49;;;;;;;28.90;17.00;;;8.50;99.90;;;;;;4907095;28;21720;-85
2021/12/19 02:18:22;;;;;;;29.37;15.60;;;8.40;99.90;;;;;;4916408;28;20471;-83
2021/12/19 02:21:02;;;;;;;23.60;14.50;;;8.40;99.90;;;;;;4936542;28;20479;-83
2021/12/19 02:23:29;;;;;;;31.20;14.17;;;8.40;99.90;;;;;;4922647;28;21721;-85
2021/12/19 02:26:01;;;;;;;28.57;15.30;;;8.40;99.90;;;;;;4887580;28;20448;-82
2021/12/19 02:28:34;;;;;;;22.13;14.07;;;8.40;99.90;;;;;;4894706;28;20597;-83
2021/12/19 02:31:01;;;;;;;21.30;13.57;;;8.40;99.90;;;;;;4891084;28;20612;-83
2021/12/19 02:33:38;;;;;;;21.40;13.63;;;8.40;99.90;;;;;;4910833;28;21210;-83
2021/12/19 02:36:57;;;;;;;20.37;12.00;;;8.40;99.90;;;;;;4944361;28;20451;-84
2021/12/19 02:50:05;;;;;;;18.73;12.20;;;8.40;99.90;;;;;;4886605;28;20636;-85
2021/12/19 02:52:32;;;;;;;17.97;11.70;;;8.30;99.90;;;;;;4908874;28;20495;-86
2021/12/19 02:55:03;;;;;;;19.23;12.00;;;8.40;99.90;;;;;;4916936;28;20468;-84
2021/12/19 02:57:34;;;;;;;18.33;12.10;;;8.50;99.90;;;;;;4896196;28;20462;-84
2021/12/19 03:00:02;;;;;;;16.20;11.10;;;8.40;99.90;;;;;;4945535;28;21039;-86
2021/12/19 03:02:29;;;;;;;17.93;11.40;;;8.40;99.90;;;;;;4963525;28;20447;-84
2021/12/19 03:04:58;;;;;;;15.80;11.53;;;8.30;99.90;;;;;;4919370;28;20474;-84
2021/12/19 03:07:25;;;;;;;17.87;10.80;;;8.40;99.90;;;;;;4898842;28;20476;-85
2021/12/19 03:10:15;;;;;;;19.97;11.00;;;8.40;99.90;;;;;;4883496;28;20470;-86
2021/12/19 03:18:33;;;;;;;20.50;11.90;;;8.30;99.90;;;;;;4947542;28;21027;-85
2021/12/19 03:21:00;;;;;;;18.57;11.53;;;8.30;99.90;;;;;;4945460;28;20459;-84
2021/12/19 03:23:26;;;;;;;18.60;11.30;;;8.40;99.90;;;;;;4948177;28;21262;-88
2021/12/19 03:25:54;;;;;;;18.17;10.37;;;8.40;99.90;;;;;;4956846;28;20958;-87
2021/12/19 03:28:31;;;;;;;17.60;10.73;;;8.40;99.90;;;;;;4879115;28;20463;-87
2021/12/19 03:30:58;;;;;;;16.87;11.47;;;8.40;99.90;;;;;;4882398;28;20467;-86
2021/12/19 03:33:25;;;;;;;15.50;10.00;;;8.30;99.90;;;;;;4883144;28;20486;-84
2021/12/19 03:35:52;;;;;;;15.70;10.20;;;8.40;99.90;;;;;;4921677;28;20463;-83
2021/12/19 03:38:25;;;;;;;15.53;10.50;;;8.40;99.90;;;;;;4932440;28;20471;-84
2021/12/19 03:41:07;;;;;;;16.50;10.17;;;8.40;99.90;;;;;;4937776;28;20523;-86
2021/12/19 03:43:33;;;;;;;14.77;9.70;;;8.40;99.90;;;;;;4911378;28;22432;-87
2021/12/19 03:46:00;;;;;;;19.37;11.53;;;8.40;99.90;;;;;;4872056;28;20461;-85
2021/12/19 03:48:27;;;;;;;14.57;10.37;;;8.40;99.90;;;;;;4877056;28;20509;-86
2021/12/19 03:50:54;;;;;;;16.40;11.47;;;8.40;99.90;;;;;;4950019;28;20436;-87
2021/12/19 03:53:33;;;;;;;16.77;11.07;;;8.40;99.90;;;;;;4924679;28;21265;-88
2021/12/19 03:56:08;;;;;;;15.97;10.30;;;8.40;99.90;;;;;;4962175;28;20448;-88
2021/12/19 03:58:35;;;;;;;14.13;9.23;;;8.40;99.90;;;;;;4925041;28;20632;-89
2021/12/19 04:01:06;;;;;;;17.03;11.00;;;8.40;99.90;;;;;;4943037;28;20542;-87
2021/12/19 04:03:33;;;;;;;12.23;8.93;;;8.30;99.90;;;;;;4990041;28;20461;-90
2021/12/19 04:06:00;;;;;;;12.53;9.17;;;8.40;99.90;;;;;;4988455;28;22137;-90
2021/12/19 04:08:27;;;;;;;13.53;9.13;;;8.40;99.90;;;;;;4984430;28;20476;-87
2021/12/19 04:10:54;;;;;;;14.80;9.50;;;8.30;99.90;;;;;;4982292;28;20459;-89
2021/12/19 04:13:22;;;;;;;13.67;10.30;;;8.30;99.90;;;;;;4984480;28;20531;-88
2021/12/19 04:15:49;;;;;;;12.87;9.00;;;8.30;99.90;;;;;;4984976;28;20435;-89
2021/12/19 04:18:17;;;;;;;12.20;8.30;;;8.30;99.90;;;;;;4981728;28;20547;-88
2021/12/19 04:20:43;;;;;;;12.17;9.23;;;8.20;99.90;;;;;;4966788;28;20463;-87
2021/12/19 04:23:10;;;;;;;11.83;8.27;;;8.20;99.90;;;;;;4984687;28;20460;-88
2021/12/19 04:25:38;;;;;;;14.37;8.03;;;8.30;99.90;;;;;;4977343;28;21226;-87
2021/12/19 04:28:04;;;;;;;11.07;7.57;;;8.20;99.90;;;;;;4977026;28;20514;-86
2021/12/19 04:30:31;;;;;;;11.77;8.27;;;8.20;99.90;;;;;;4973298;28;20467;-89
2021/12/19 04:33:08;;;;;;;10.90;8.50;;;8.20;99.90;;;;;;4974810;28;20474;-88
2021/12/19 04:35:45;;;;;;;10.77;7.13;;;8.20;99.90;;;;;;4973896;28;20648;-86
2021/12/19 04:41:38;;;;;;;13.63;8.03;;;8.20;99.90;;;;;;4971578;28;20488;-88
2021/12/19 04:57:45;;;;;;;11.63;8.53;;;8.20;99.90;;;;;;4938704;28;20572;-86
2021/12/19 05:00:17;;;;;;;10.17;6.50;;;8.20;99.90;;;;;;4959842;28;20570;-88
2021/12/19 05:06:21;;;;;;;12.47;7.70;;;8.30;99.90;;;;;;4992776;28;20462;-89
2021/12/19 05:16:33;;;;;;;11.70;7.60;;;8.30;99.90;;;;;;4986023;28;20493;-88
2021/12/19 05:19:16;;;;;;;;;;;;;;;;;;;;;
2021/12/19 05:21:44;;;;;;;8.83;6.60;;;8.20;99.90;;;;;;4983354;28;20548;-88
2021/12/19 05:26:57;;;;;;;10.10;7.03;;;8.30;99.90;;;;;;4977654;28;20483;-88
2021/12/19 05:29:30;;;;;;;14.10;8.40;;;8.30;99.90;;;;;;4985844;28;20510;-88
2021/12/19 05:31:59;;;;;;;11.13;7.10;;;8.30;99.90;;;;;;4984287;28;20459;-88
2021/12/19 05:34:29;;;;;;;10.77;7.17;;;8.30;99.90;;;;;;4982555;28;20479;-89
2021/12/19 05:45:20;;;;;;;10.93;6.40;;;8.20;99.90;;;;;;4984668;28;20474;-87
2021/12/19 05:47:51;;;;;;;9.03;6.23;;;8.20;99.90;;;;;;4980540;28;20561;-87
2021/12/19 05:50:21;;;;;;;10.27;7.43;;;8.20;99.90;;;;;;4971284;28;20525;-87
2021/12/19 05:52:49;;;;;;;10.47;5.97;;;8.20;99.90;;;;;;4984455;28;20464;-90
2021/12/19 05:55:20;;;;;;;9.27;6.80;;;8.30;99.90;;;;;;4982585;28;20476;-88
2021/12/19 05:57:48;;;;;;;9.53;6.60;;;8.20;99.90;;;;;;4979813;28;20464;-88
2021/12/19 06:00:19;;;;;;;9.57;6.07;;;8.20;99.90;;;;;;4979151;28;21887;-87
2021/12/19 06:02:46;;;;;;;11.03;6.90;;;8.20;99.90;;;;;;4961941;28;20455;-89
2021/12/19 06:05:16;;;;;;;12.20;6.40;;;8.30;99.90;;;;;;4973302;28;20450;-88
2021/12/19 06:07:43;;;;;;;9.30;6.80;;;8.30;99.90;;;;;;4972902;28;20575;-86
2021/12/19 06:10:20;;;;;;;7.70;6.03;;;8.20;99.90;;;;;;4963813;28;20465;-89
2021/12/19 06:13:07;;;;;;;10.33;6.83;;;8.20;99.90;;;;;;4932293;28;20475;-90
2021/12/19 06:15:36;;;;;;;9.67;5.97;;;8.30;99.90;;;;;;4929704;28;20494;-89
2021/12/19 06:18:13;;;;;;;8.70;5.73;;;8.20;99.90;;;;;;4932616;28;20800;-88
2021/12/19 06:20:40;;;;;;;9.13;6.60;;;8.30;99.90;;;;;;4974456;28;20467;-87
2021/12/19 06:23:09;;;;;;;9.60;7.17;;;8.20;99.90;;;;;;4997732;28;20515;-90
2021/12/19 06:25:36;;;;;;;9.00;6.40;;;8.20;99.90;;;;;;4993190;28;20507;-87
2021/12/19 06:28:03;;;;;;;8.37;5.97;;;8.20;99.90;;;;;;4994101;28;20479;-88
2021/12/19 06:30:31;;;;;;;8.07;5.20;;;8.20;99.90;;;;;;4988382;28;20535;-89
2021/12/19 06:32:58;;;;;;;9.10;6.53;;;8.20;99.90;;;;;;4989212;28;20468;-89
2021/12/19 06:35:29;;;;;;;7.30;5.93;;;8.30;99.90;;;;;;4989604;28;20522;-88
2021/12/19 06:38:02;;;;;;;11.10;6.53;;;8.20;99.90;;;;;;4985566;28;20479;-89
2021/12/19 06:40:30;;;;;;;8.43;6.40;;;8.20;99.90;;;;;;4984176;28;20566;-89
2021/12/19 06:42:58;;;;;;;11.20;7.03;;;8.20;99.90;;;;;;4987842;28;20996;-89
2021/12/19 06:45:25;;;;;;;7.90;6.53;;;8.20;99.90;;;;;;4985129;28;20461;-89
2021/12/19 06:47:53;;;;;;;9.13;6.57;;;8.20;99.90;;;;;;4994721;28;20463;-88
2021/12/19 06:50:22;;;;;;;9.50;6.53;;;8.20;99.90;;;;;;4981598;28;20502;-89
2021/12/19 06:52:50;;;;;;;11.17;7.30;;;8.20;99.90;;;;;;4987814;28;20447;-88
2021/12/19 06:55:22;;;;;;;9.97;6.63;;;8.20;99.90;;;;;;4988559;28;20567;-89
2021/12/19 06:57:50;;;;;;;10.93;6.90;;;8.20;99.90;;;;;;4969617;28;20475;-89
2021/12/19 07:00:21;;;;;;;12.57;7.13;;;8.30;99.90;;;;;;4929879;28;20431;-89
2021/12/19 07:02:53;;;;;;;7.33;5.97;;;8.30;99.90;;;;;;4951685;28;20464;-87
2021/12/19 07:05:22;;;;;;;6.60;5.27;;;8.20;99.90;;;;;;4961952;28;20456;-91
2021/12/19 07:07:50;;;;;;;8.30;6.27;;;8.30;99.90;;;;;;4967893;28;21392;-87
2021/12/19 07:10:17;;;;;;;7.97;6.30;;;8.30;99.90;;;;;;4976008;28;20529;-88
2021/12/19 07:12:48;;;;;;;8.60;5.47;;;8.30;99.90;;;;;;4979732;28;20577;-87
2021/12/19 07:15:17;;;;;;;7.10;5.70;;;8.30;99.90;;;;;;4983241;28;20485;-89
2021/12/19 07:17:47;;;;;;;8.50;6.10;;;8.30;99.90;;;;;;4979523;28;21306;-86
2021/12/19 07:20:17;;;;;;;9.67;6.33;;;8.30;99.90;;;;;;4962078;28;20475;-87
2021/12/19 07:22:51;;;;;;;9.60;6.90;;;8.30;99.90;;;;;;4981302;28;20578;-88
2021/12/19 07:25:21;;;;;;;9.07;6.80;;;8.30;99.90;;;;;;4978155;28;20543;-90
2021/12/19 07:27:47;;;;;;;9.90;6.80;;;8.30;99.90;;;;;;4974383;28;21540;-86
2021/12/19 07:30:14;;;;;;;9.60;7.30;;;8.30;99.90;;;;;;4971384;28;20468;-87
2021/12/19 07:32:48;;;;;;;11.70;7.40;;;8.40;99.90;;;;;;4985021;28;20464;-89
2021/12/19 07:35:21;;;;;;;8.70;6.07;;;8.40;99.90;;;;;;4971320;28;20554;-89
2021/12/19 07:37:56;;;;;;;11.03;7.30;;;8.40;99.90;;;;;;4996886;28;20490;-88
2021/12/19 07:40:28;;;;;;;10.17;6.87;;;8.40;99.90;;;;;;4987738;28;20447;-88
2021/12/19 07:42:58;;;;;;;10.93;7.40;;;8.40;99.90;;;;;;4985810;28;20518;-88
2021/12/19 07:45:26;;;;;;;10.13;7.50;;;8.40;99.90;;;;;;4983574;28;20456;-89
2021/12/19 07:47:53;;;;;;;10.93;6.80;;;8.50;99.90;;;;;;4984192;28;20487;-89
2021/12/19 07:50:22;;;;;;;9.83;6.90;;;8.40;99.90;;;;;;4982983;28;20463;-88
2021/12/19 07:52:48;;;;;;;9.10;6.47;;;8.50;99.90;;;;;;4987103;28;20448;-88
2021/12/19 07:55:16;;;;;;;10.20;6.83;;;8.50;99.90;;;;;;4990736;28;20495;-87
2021/12/19 07:57:43;;;;;;;12.57;7.37;;;8.50;99.90;;;;;;4971682;28;20497;-87
2021/12/19 08:00:13;;;;;;;9.37;6.63;;;8.50;99.90;;;;;;4987378;28;20459;-87
2021/12/19 08:02:45;;;;;;;12.33;6.87;;;8.50;99.90;;;;;;4988347;28;20455;-88
2021/12/19 08:05:19;;;;;;;9.90;7.00;;;8.50;99.90;;;;;;4986282;28;20482;-87
2021/12/19 08:07:48;;;;;;;11.07;7.57;;;8.50;99.90;;;;;;4987006;28;20488;-89
2021/12/19 08:12:58;;;;;;;13.03;8.33;;;8.50;99.90;;;;;;4982118;28;20471;-88
2021/12/19 08:15:38;;;;;;;12.20;8.50;;;8.60;99.90;;;;;;4984575;28;20484;-89
2021/12/19 08:18:11;;;;;;;9.90;6.23;;;8.50;99.90;;;;;;4993724;28;21027;-89
2021/12/19 08:20:39;;;;;;;9.70;5.43;;;8.40;99.90;;;;;;4997668;28;20451;-89
2021/12/19 08:23:15;;;;;;;8.57;5.20;;;8.30;99.90;;;;;;4982672;28;21344;-88
2021/12/19 08:25:43;;;;;;;7.90;5.40;;;8.30;99.90;;;;;;4983999;28;20917;-89
2021/12/19 08:28:10;;;;;;;7.23;4.97;;;8.40;99.90;;;;;;4994563;28;21358;-87
2021/12/19 08:30:37;;;;;;;8.33;5.00;;;8.30;99.90;;;;;;4991685;28;20498;-89
2021/12/19 08:33:54;;;;;;;5.53;3.93;;;8.40;99.90;;;;;;4987577;28;20804;-88
2021/12/19 08:36:22;;;;;;;5.80;3.37;;;8.50;99.90;;;;;;4991557;28;20485;-88
2021/12/19 08:38:49;;;;;;;4.30;3.17;;;8.40;99.90;;;;;;4996991;28;20587;-88
2021/12/19 08:41:18;;;;;;;4.57;3.57;;;8.40;99.90;;;;;;4998742;28;20510;-90
2021/12/19 08:43:47;;;;;;;3.83;2.70;;;8.30;99.90;;;;;;4998137;28;20476;-88
2021/12/19 08:46:15;;;;;;;2.60;2.00;;;8.20;99.90;;;;;;4997472;28;22267;-89
2021/12/19 08:48:44;;;;;;;1.80;1.47;;;8.30;99.90;;;;;;4995016;28;20502;-89
2021/12/19 08:51:12;;;;;;;3.43;2.27;;;8.30;99.90;;;;;;4998318;28;20455;-89
2021/12/19 08:53:38;;;;;;;2.13;1.40;;;8.30;99.90;;;;;;4995371;28;20469;-89
2021/12/19 08:56:10;;;;;;;1.33;1.23;;;8.30;99.90;;;;;;4998208;28;20521;-87
2021/12/19 08:58:37;;;;;;;3.03;1.30;;;8.30;99.90;;;;;;4996178;28;20460;-87
2021/12/19 09:01:04;;;;;;;1.47;1.30;;;8.30;99.90;;;;;;4992014;28;20464;-90
2021/12/19 09:03:32;;;;;;;2.10;1.40;;;8.30;99.90;;;;;;4988765;28;20470;-89
2021/12/19 09:06:00;;;;;;;1.73;1.63;;;8.30;99.90;;;;;;4992090;28;20451;-91
2021/12/19 09:08:27;;;;;;;2.97;1.47;;;8.40;99.90;;;;;;4988183;28;20518;-90
2021/12/19 09:10:55;;;;;;;2.77;2.47;;;8.50;99.90;;;;;;4990967;28;20490;-90
2021/12/19 09:13:22;;;;;;;2.37;2.00;;;8.60;99.90;;;;;;4993852;28;20471;-89
2021/12/19 09:15:57;;;;;;;2.20;2.00;;;8.60;99.90;;;;;;4992659;28;20480;-87
2021/12/19 09:18:29;;;;;;;3.40;2.03;;;8.60;99.90;;;;;;4986980;28;20707;-87
2021/12/19 09:21:10;;;;;;;3.10;2.63;;;8.50;99.90;;;;;;4977275;28;20455;-88
2021/12/19 09:23:41;;;;;;;3.13;2.73;;;8.40;99.90;;;;;;4987521;28;20480;-89
2021/12/19 09:26:11;;;;;;;4.43;2.60;;;8.30;99.90;;;;;;4985989;28;20468;-89
2021/12/19 09:28:41;;;;;;;4.67;3.67;;;8.40;99.90;;;;;;4989197;28;21254;-89
2021/12/19 09:31:10;;;;;;;4.17;2.57;;;8.40;99.90;;;;;;4987163;28;20476;-88
2021/12/19 09:33:40;;;;;;;4.00;2.70;;;8.40;99.90;;;;;;4987897;28;20485;-87
2021/12/19 09:36:08;;;;;;;3.60;2.70;;;8.40;99.90;;;;;;4980767;28;20482;-89
2021/12/19 09:38:36;;;;;;;4.37;3.43;;;8.30;99.90;;;;;;4978006;28;20543;-86
2021/12/19 09:41:13;;;;;;;5.53;3.30;;;8.40;99.90;;;;;;4982169;28;20444;-87
2021/12/19 09:43:45;;;;;;;4.03;3.33;;;8.40;99.90;;;;;;4983668;28;20480;-88
2021/12/19 09:46:17;;;;;;;4.10;3.13;;;8.40;99.90;;;;;;4981380;28;20669;-87
2021/12/19 09:48:53;;;;;;;6.30;2.90;;;8.40;99.90;;;;;;4961670;28;20455;-87
2021/12/19 09:51:23;;;;;;;6.00;3.20;;;8.40;99.90;;;;;;4952023;28;20534;-87
2021/12/19 09:53:50;;;;;;;3.83;2.60;;;8.40;99.90;;;;;;4939071;28;20456;-88
2021/12/19 09:56:18;;;;;;;3.50;2.70;;;8.40;99.90;;;;;;4934274;28;20475;-88
2021/12/19 09:58:53;;;;;;;3.97;3.03;;;8.40;99.90;;;;;;4983890;28;20472;-88
2021/12/19 10:01:21;;;;;;;4.27;2.87;;;8.40;99.90;;;;;;4979869;28;20467;-88
2021/12/19 10:03:49;;;;;;;2.93;2.63;;;8.40;99.90;;;;;;4986862;28;20520;-89
2021/12/19 10:06:29;;;;;;;2.90;2.60;;;8.40;99.90;;;;;;4984047;28;20488;-87
2021/12/19 10:09:18;;;;;;;3.67;2.20;;;8.50;99.90;;;;;;4987489;28;20546;-88
2021/12/19 10:14:24;;;;;;;2.60;2.33;;;8.50;99.90;;;;;;4983876;28;20463;-88
2021/12/19 10:16:51;;;;;;;3.93;2.80;;;8.60;99.90;;;;;;4979420;28;20494;-88
2021/12/19 10:19:21;;;;;;;8.53;4.03;;;8.50;99.90;;;;;;4977061;28;20539;-89
2021/12/19 10:21:48;;;;;;;4.20;2.00;;;8.50;99.90;;;;;;4976890;28;20478;-89
2021/12/19 10:24:33;;;;;;;3.70;2.20;;;8.50;99.90;;;;;;4988739;28;20466;-85
2021/12/19 10:27:02;;;;;;;3.97;3.30;;;8.50;99.90;;;;;;4984276;28;21536;-87
2021/12/19 10:29:48;;;;;;;2.53;1.90;;;8.50;99.90;;;;;;4977406;28;20962;-88
2021/12/19 10:32:30;;;;;;;1.83;1.50;;;8.50;99.90;;;;;;4978134;28;20464;-89
2021/12/19 10:35:16;;;;;;;2.30;2.03;;;8.50;99.90;;;;;;4979373;28;20542;-89
2021/12/19 10:37:43;;;;;;;2.83;1.93;;;8.50;99.90;;;;;;4976185;28;20469;-88
2021/12/19 10:40:10;;;;;;;3.00;2.07;;;8.50;99.90;;;;;;4980760;28;20482;-89
2021/12/19 10:42:46;;;;;;;2.97;1.47;;;8.60;99.90;;;;;;4979265;28;20460;-90
2021/12/19 10:45:29;;;;;;;2.50;1.73;;;8.70;99.90;;;;;;4981913;28;20454;-87
2021/12/19 10:48:16;;;;;;;1.90;1.53;;;8.60;99.90;;;;;;4982431;28;20563;-88
2021/12/19 10:51:03;;;;;;;1.73;1.40;;;8.70;99.90;;;;;;4979698;28;20464;-87
2021/12/19 10:53:42;;;;;;;1.77;1.30;;;8.70;99.90;;;;;;4981699;28;20456;-86
2021/12/19 10:56:19;;;;;;;1.83;1.50;;;8.70;99.90;;;;;;4982009;28;20487;-90
2021/12/19 10:58:58;;;;;;;2.40;2.20;;;8.80;99.90;;;;;;4980409;28;20467;-89
2021/12/19 11:01:29;;;;;;;2.10;1.50;;;8.90;99.90;;;;;;4960637;28;20454;-89
2021/12/19 11:04:06;;;;;;;1.63;1.40;;;9.00;99.90;;;;;;4966913;28;21725;-88
2021/12/19 11:06:39;;;;;;;2.00;1.67;;;8.80;99.90;;;;;;4959571;28;20510;-90
2021/12/19 11:09:24;;;;;;;1.73;1.63;;;8.90;99.90;;;;;;4978971;28;20518;-87
2021/12/19 11:12:10;;;;;;;1.50;1.40;;;9.00;99.90;;;;;;4961859;28;20984;-90
2021/12/19 11:14:52;;;;;;;1.57;1.47;;;9.00;99.90;;;;;;4993442;28;20644;-89
2021/12/19 11:17:28;;;;;;;1.67;1.30;;;9.10;99.90;;;;;;4984123;28;20491;-88
2021/12/19 11:19:56;;;;;;;1.67;1.33;;;9.20;99.90;;;;;;4987409;28;20576;-88
2021/12/19 11:22:27;;;;;;;1.30;1.20;;;9.00;99.90;;;;;;4986323;28;21755;-90
2021/12/19 11:24:59;;;;;;;6.20;1.30;;;9.00;99.90;;;;;;4986529;28;20989;-87
2021/12/19 11:27:50;;;;;;;3.17;1.80;;;9.10;99.90;;;;;;4987444;28;20482;-88
2021/12/19 11:30:19;;;;;;;1.37;1.27;;;9.20;99.90;;;;;;4979004;28;20510;-87
2021/12/19 11:33:17;;;;;;;1.40;1.30;;;9.10;99.90;;;;;;4978719;28;20455;-86
2021/12/19 11:35:55;;;;;;;2.03;1.40;;;9.00;99.90;;;;;;4972575;28;20574;-86
2021/12/19 11:38:23;;;;;;;1.60;1.50;;;9.10;99.90;;;;;;4977521;28;20539;-86
2021/12/19 11:40:53;;;;;;;2.50;1.63;;;9.00;99.90;;;;;;4971678;28;20896;-87
2021/12/19 11:43:22;;;;;;;1.70;1.60;;;9.00;99.90;;;;;;4977370;28;20867;-86
2021/12/19 11:46:23;;;;;;;2.33;2.13;;;9.20;99.90;;;;;;4976750;28;20514;-86
2021/12/19 11:49:24;;;;;;;2.40;1.30;;;9.10;99.90;;;;;;4977071;28;20496;-87
2021/12/19 11:54:46;;;;;;;2.20;2.00;;;9.20;99.90;;;;;;4956268;28;20313;-89
2021/12/19 11:57:21;;;;;;;2.37;1.50;;;9.20;99.90;;;;;;4949358;28;20501;-86
2021/12/19 11:59:49;;;;;;;2.57;1.80;;;9.30;99.90;;;;;;4935944;28;20498;-88
2021/12/19 12:02:26;;;;;;;1.70;1.50;;;9.20;99.90;;;;;;4939387;28;20449;-88
2021/12/19 12:05:12;;;;;;;1.70;1.60;;;9.10;99.90;;;;;;4939803;28;21948;-86
2021/12/19 12:10:59;;;;;;;2.43;2.00;;;9.00;99.90;;;;;;4952802;28;20460;-85
2021/12/19 12:13:36;;;;;;;2.60;2.30;;;8.90;99.90;;;;;;4946415;28;20557;-85
2021/12/19 12:19:02;;;;;;;2.77;1.90;;;9.00;99.90;;;;;;5056819;23;20484;-86
2021/12/19 12:21:38;;;;;;;2.60;1.63;;;9.00;99.90;;;;;;4975903;28;21772;-86
2021/12/19 12:24:18;;;;;;;0.90;0.90;;;9.00;99.90;;;;;;4976468;28;20448;-85
2021/12/19 12:26:53;;;;;;;4.50;1.93;;;8.90;99.90;;;;;;4983017;28;20476;-87
2021/12/19 12:29:46;;;;;;;1.70;1.40;;;9.00;99.90;;;;;;4954134;28;22035;-86
2021/12/19 12:32:13;;;;;;;2.60;2.40;;;9.00;99.90;;;;;;4965289;28;20467;-85
2021/12/19 12:34:42;;;;;;;2.67;1.57;;;9.10;99.90;;;;;;4964075;28;20469;-89
2021/12/19 12:37:11;;;;;;;1.50;1.40;;;9.20;99.90;;;;;;4961053;28;20510;-86
2021/12/19 12:39:58;;;;;;;1.50;1.40;;;9.20;99.90;;;;;;4955572;28;20461;-86
2021/12/19 12:42:59;;;;;;;1.50;1.37;;;9.10;99.90;;;;;;4926682;28;20421;-88
2021/12/19 12:49:02;;;;;;;1.70;1.53;;;9.00;99.90;;;;;;4934820;28;20547;-83
2021/12/19 12:51:38;;;;;;;2.30;1.57;;;9.00;99.90;;;;;;4934806;28;20464;-86
2021/12/19 12:54:20;;;;;;;1.53;1.20;;;9.00;99.90;;;;;;4935789;28;20451;-84
2021/12/19 12:56:54;;;;;;;2.17;1.40;;;9.00;99.90;;;;;;4933037;28;20500;-85
2021/12/19 12:59:24;;;;;;;1.30;1.20;;;9.00;99.90;;;;;;4933223;28;20954;-84
2021/12/19 13:01:53;;;;;;;1.83;1.27;;;9.00;99.90;;;;;;4934124;28;20538;-83
2021/12/19 13:04:23;;;;;;;3.23;1.47;;;9.00;99.90;;;;;;4943560;28;20446;-84
2021/12/19 13:06:53;;;;;;;2.20;1.60;;;9.00;99.90;;;;;;4947635;28;20611;-85
2021/12/19 13:09:23;;;;;;;3.87;1.90;;;9.00;99.90;;;;;;4954862;28;20452;-85
2021/12/19 13:12:00;;;;;;;2.00;1.80;;;9.00;99.90;;;;;;4956746;28;20470;-87
2021/12/19 13:14:28;;;;;;;2.00;1.80;;;9.20;99.90;;;;;;4957301;28;20470;-87
2021/12/19 13:17:02;;;;;;;2.67;2.00;;;9.20;99.90;;;;;;4958887;28;20457;-83
2021/12/19 13:19:38;;;;;;;4.00;2.57;;;9.20;99.90;;;;;;4944842;28;20535;-85
2021/12/19 13:22:06;;;;;;;3.57;1.90;;;9.10;99.90;;;;;;4952561;28;20456;-83
2021/12/19 13:24:35;;;;;;;2.90;1.90;;;9.10;99.90;;;;;;4940425;28;20449;-84
2021/12/19 13:27:13;;;;;;;2.57;2.37;;;9.00;99.90;;;;;;4941854;28;20476;-86
2021/12/19 13:29:41;;;;;;;2.90;2.60;;;9.00;99.90;;;;;;4936479;28;20504;-84
2021/12/19 13:32:29;;;;;;;3.33;3.03;;;8.90;99.90;;;;;;4942317;28;20457;-83
2021/12/19 13:34:57;;;;;;;3.10;2.50;;;8.90;99.90;;;;;;4948254;28;20444;-85
2021/12/19 13:37:25;;;;;;;3.13;2.83;;;8.90;99.90;;;;;;4948165;28;20567;-84
2021/12/19 13:40:14;;;;;;;3.70;2.47;;;8.90;99.90;;;;;;4953642;28;20814;-84
2021/12/19 13:43:01;;;;;;;3.90;2.50;;;8.90;99.90;;;;;;4952287;28;20449;-84
2021/12/19 13:45:49;;;;;;;7.83;1.70;;;8.90;99.90;;;;;;4941370;28;20453;-83
2021/12/19 13:48:31;;;;;;;1.90;1.80;;;8.90;99.90;;;;;;4950723;28;21387;-85
2021/12/19 13:51:12;;;;;;;2.83;1.97;;;8.90;99.90;;;;;;4953223;28;20511;-83
2021/12/19 13:54:02;;;;;;;1.50;1.40;;;9.00;99.90;;;;;;4968338;28;20451;-84
2021/12/19 13:56:32;;;;;;;1.40;1.30;;;9.00;99.90;;;;;;4965073;28;20498;-86
2021/12/19 13:59:02;;;;;;;1.30;1.20;;;9.00;99.90;;;;;;4964337;28;20521;-84
2021/12/19 14:01:30;;;;;;;1.23;1.10;;;9.00;99.90;;;;;;4963518;28;20449;-83
2021/12/19 14:04:01;;;;;;;2.10;1.90;;;9.10;99.90;;;;;;4958708;28;20461;-83
2021/12/19 14:06:31;;;;;;;1.47;1.37;;;9.00;99.90;;;;;;4944069;28;20456;-83
2021/12/19 14:09:04;;;;;;;1.70;1.50;;;9.00;99.90;;;;;;4942072;28;20966;-85
2021/12/19 14:11:36;;;;;;;1.17;1.00;;;9.00;99.90;;;;;;4942737;28;20461;-88
2021/12/19 14:14:23;;;;;;;1.53;1.20;;;9.00;99.90;;;;;;4950356;28;20527;-83
2021/12/19 14:16:58;;;;;;;1.30;1.03;;;9.10;99.90;;;;;;4950562;28;20496;-86
2021/12/19 14:19:27;;;;;;;1.33;1.23;;;9.10;99.90;;;;;;4942841;28;20460;-84
2021/12/19 14:22:01;;;;;;;1.33;1.23;;;9.10;99.90;;;;;;4959100;28;20491;-85
2021/12/19 14:24:46;;;;;;;1.00;0.90;;;9.10;99.90;;;;;;4964137;28;20806;-85
2021/12/19 14:27:27;;;;;;;0.90;0.90;;;9.10;99.90;;;;;;4938864;28;20474;-82
2021/12/19 14:30:12;;;;;;;1.50;1.00;;;9.10;99.90;;;;;;4936367;28;20541;-82
2021/12/19 14:32:47;;;;;;;1.20;1.10;;;9.00;99.90;;;;;;4954481;28;20492;-84
2021/12/19 14:35:20;;;;;;;0.93;0.87;;;9.20;99.90;;;;;;4948953;28;20539;-86
2021/12/19 14:37:55;;;;;;;0.80;0.80;;;9.30;99.90;;;;;;4955724;28;20491;-82
2021/12/19 14:40:27;;;;;;;1.43;1.20;;;9.70;99.90;;;;;;4955808;28;20443;-82